createdAt,value
2022-11-08T00:01:29.123Z,99919.31
2022-11-08T00:06:34.734Z,99921.71
2022-11-08T00:11:40.185Z,99925.63
2022-11-08T00:16:42.667Z,99926.39
2022-11-08T00:21:45.159Z,99929.58
2022-11-08T00:26:47.727Z,99926.54
2022-11-08T00:31:50.187Z,99924.79
2022-11-08T00:36:53.559Z,99923.92
2022-11-08T00:41:56.260Z,99930.14
2022-11-08T00:46:58.859Z,99933.86
2022-11-08T00:52:01.410Z,99938.04
2022-11-08T00:57:04.056Z,99941.26
2022-11-08T01:02:06.668Z,99941.02
2022-11-08T01:07:09.476Z,99933.06
2022-11-08T01:12:11.946Z,99933.57
2022-11-08T01:17:14.431Z,99930.00
2022-11-08T01:22:16.936Z,99926.27
2022-11-08T01:27:19.435Z,99930.55
2022-11-08T01:32:22.100Z,99924.32
2022-11-08T01:37:27.006Z,99920.14
2022-11-08T01:42:31.111Z,99919.80
2022-11-08T01:47:34.249Z,99918.02
2022-11-08T01:52:55.640Z,99918.37
2022-11-08T01:57:59.131Z,99915.45
2022-11-08T02:03:02.594Z,99905.91
2022-11-08T02:08:12.628Z,99903.80
2022-11-08T02:13:18.608Z,99893.45
2022-11-08T02:18:22.480Z,99890.14
2022-11-08T02:23:31.632Z,99894.11
2022-11-08T02:28:40.134Z,99897.02
2022-11-08T02:33:43.624Z,99887.29
2022-11-08T02:38:55.208Z,99887.09
2022-11-08T02:44:00.295Z,99890.57
2022-11-08T02:49:02.997Z,99887.96
2022-11-08T02:54:05.619Z,99891.79
2022-11-08T02:59:08.082Z,99887.13
2022-11-08T03:04:10.565Z,99886.86
2022-11-08T03:09:14.385Z,99885.09
2022-11-08T03:14:17.061Z,99893.26
2022-11-08T03:19:19.568Z,99901.34
2022-11-08T03:24:22.099Z,99902.34
2022-11-08T03:29:24.548Z,99908.23
2022-11-08T03:34:27.301Z,99904.16
2022-11-08T03:39:31.014Z,99909.66
2022-11-08T03:44:33.662Z,99916.09
2022-11-08T03:49:36.201Z,99926.38
2022-11-08T03:54:38.725Z,99926.77
2022-11-08T03:59:41.191Z,99919.11
2022-11-08T04:04:43.628Z,99922.73
2022-11-08T04:09:46.638Z,99919.05
2022-11-08T04:14:52.076Z,99910.37
2022-11-08T04:19:57.495Z,99909.60
2022-11-08T04:24:59.990Z,99903.11
2022-11-08T04:30:02.510Z,99910.99
2022-11-08T04:35:05.302Z,99908.95
2022-11-08T04:40:08.689Z,99906.61
2022-11-08T04:45:11.198Z,99907.09
2022-11-08T04:50:14.343Z,99911.17
2022-11-08T04:55:16.889Z,99915.47
2022-11-08T05:00:19.462Z,99919.15
2022-11-08T05:05:23.014Z,99924.23
2022-11-08T05:11:29.789Z,99926.22
2022-11-08T05:16:32.503Z,99925.09
2022-11-08T05:21:37.990Z,99923.81
2022-11-08T05:26:42.500Z,99920.66
2022-11-08T05:31:45.050Z,99922.64
2022-11-08T05:36:47.508Z,99929.63
2022-11-08T05:41:50.006Z,99936.72
2022-11-08T05:46:52.544Z,99932.85
2022-11-08T05:51:55.053Z,99935.02
2022-11-08T05:56:57.578Z,99943.94
2022-11-08T06:02:00.165Z,99944.59
2022-11-08T06:07:02.769Z,99950.50
2022-11-08T06:12:05.821Z,99958.23
2022-11-08T06:17:08.481Z,99963.38
2022-11-08T06:22:11.417Z,99968.73
2022-11-08T06:27:14.621Z,99970.42
2022-11-08T06:32:17.383Z,99977.34
2022-11-08T06:37:20.109Z,99977.64
2022-11-08T06:42:22.660Z,99971.52
2022-11-08T06:47:25.129Z,99973.76
2022-11-08T06:52:27.602Z,99968.15
2022-11-08T06:57:30.700Z,99970.45
2022-11-08T07:02:33.437Z,99969.41
2022-11-08T07:07:36.179Z,99969.94
2022-11-08T07:12:38.961Z,99977.33
2022-11-08T07:17:41.731Z,99984.88
2022-11-08T07:22:44.393Z,99985.36
2022-11-08T07:27:47.010Z,99996.23
2022-11-08T07:32:49.920Z,99993.25
2022-11-08T07:37:52.462Z,99985.03
2022-11-08T07:43:22.877Z,99987.73
2022-11-08T07:48:20.879Z,99983.09
2022-11-08T07:53:26.022Z,99983.23
2022-11-08T07:58:28.509Z,99976.61
2022-11-08T08:03:31.527Z,99978.62
2022-11-08T08:08:34.306Z,99978.48
2022-11-08T08:13:36.837Z,99984.16
2022-11-08T08:18:39.343Z,99982.30
2022-11-08T08:23:41.902Z,99982.89
2022-11-08T08:28:44.492Z,99983.57
2022-11-08T08:33:47.043Z,99986.66
2022-11-08T08:38:49.660Z,99990.47
2022-11-08T08:43:52.120Z,99985.20
2022-11-08T08:48:56.781Z,99988.45
2022-11-08T08:53:59.223Z,99988.90
2022-11-08T09:04:24.153Z,99990.71
2022-11-08T09:09:26.826Z,99987.73
2022-11-08T09:14:29.430Z,99992.72
2022-11-08T09:19:31.939Z,99991.66
2022-11-08T09:24:37.129Z,99996.22
2022-11-08T09:29:39.640Z,99998.17
2022-11-08T09:34:42.236Z,100004.86
2022-11-08T09:39:44.916Z,100000.82
2022-11-08T09:44:57.257Z,99992.77
2022-11-08T09:50:22.857Z,99995.10
2022-11-08T09:55:31.173Z,99996.43
2022-11-08T10:00:37.348Z,99988.98
2022-11-08T10:05:44.099Z,99989.46
2022-11-08T10:10:57.109Z,99994.86
2022-11-08T10:16:01.601Z,99993.20
2022-11-08T10:21:27.321Z,99989.23
2022-11-08T10:26:36.715Z,99987.06
2022-11-08T10:31:41.216Z,99984.02
2022-11-08T10:36:46.839Z,99984.66
2022-11-08T10:42:01.143Z,99981.59
2022-11-08T10:47:06.905Z,99976.64
2022-11-08T10:52:11.396Z,99978.33
2022-11-08T10:57:18.333Z,99972.30
2022-11-08T11:02:23.925Z,99967.23
2022-11-08T11:07:31.341Z,99966.48
2022-11-08T11:12:33.828Z,99963.37
2022-11-08T11:17:39.088Z,99965.38
2022-11-08T11:22:47.007Z,99961.14
2022-11-08T11:27:59.393Z,99964.52
2022-11-08T11:33:18.642Z,99959.59
2022-11-08T11:38:30.336Z,99955.23
2022-11-08T11:43:39.700Z,99955.98
2022-11-08T11:48:46.355Z,99953.70
2022-11-08T11:53:49.212Z,99946.66
2022-11-08T11:58:54.640Z,99953.14
2022-11-08T12:03:59.983Z,99949.14
2022-11-08T12:09:17.910Z,99948.76
2022-11-08T12:14:40.287Z,99943.57
2022-11-08T12:19:45.698Z,99933.45
2022-11-08T12:24:52.689Z,99931.34
2022-11-08T12:30:05.411Z,99935.12
2022-11-08T12:35:19.694Z,99930.54
2022-11-08T12:40:34.575Z,99933.83
2022-11-08T12:45:41.141Z,99930.31
2022-11-08T12:50:48.570Z,99929.75
2022-11-08T12:55:55.297Z,99932.23
2022-11-08T13:01:02.996Z,99935.11
2022-11-08T13:06:12.271Z,99934.42
2022-11-08T13:11:24.740Z,99937.61
2022-11-08T13:16:34.704Z,99943.59
2022-11-08T13:21:40.433Z,99946.30
2022-11-08T13:26:44.329Z,99951.14
2022-11-08T13:31:52.821Z,99950.23
2022-11-08T13:36:59.532Z,99944.41
2022-11-08T13:42:24.137Z,99944.14
2022-11-08T13:47:31.781Z,99947.24
2022-11-08T13:52:43.260Z,99941.00
2022-11-08T13:58:04.081Z,99939.42
2022-11-08T14:03:29.417Z,99933.77
2022-11-08T14:08:38.129Z,99933.75
2022-11-08T14:13:57.189Z,99933.78
2022-11-08T14:19:05.581Z,99928.80
2022-11-08T14:24:18.403Z,99928.09
2022-11-08T14:29:23.808Z,99926.38
2022-11-08T14:34:28.507Z,99932.41
2022-11-08T14:39:34.553Z,99933.10
2022-11-08T14:44:37.319Z,99937.21
2022-11-08T14:49:39.889Z,99939.99
2022-11-08T14:54:45.256Z,99939.27
2022-11-08T14:59:49.627Z,99934.05
2022-11-08T15:04:55.350Z,99933.84
2022-11-08T15:10:06.909Z,99927.98
2022-11-08T15:15:19.445Z,99927.92
2022-11-08T15:20:22.220Z,99920.27
2022-11-08T15:25:42.353Z,99918.33
2022-11-08T15:30:46.107Z,99925.07
2022-11-08T15:35:48.866Z,99921.86
2022-11-08T15:40:54.034Z,99917.98
2022-11-08T15:45:58.387Z,99913.12
2022-11-08T15:51:00.940Z,99916.21
2022-11-08T15:56:05.465Z,99916.70
2022-11-08T16:01:18.156Z,99917.41
2022-11-08T16:06:20.723Z,99919.20
2022-11-08T16:11:23.952Z,99926.50
2022-11-08T16:16:31.303Z,99928.98
2022-11-08T16:21:37.346Z,99930.86
2022-11-08T16:26:42.639Z,99935.77
2022-11-08T16:31:45.588Z,99936.23
2022-11-08T16:36:49.837Z,99944.15
2022-11-08T16:41:52.346Z,99943.87
2022-11-08T16:46:55.081Z,99946.04
2022-11-08T16:51:57.606Z,99942.59
2022-11-08T16:57:28.576Z,99943.43
2022-11-08T17:02:30.388Z,99944.44
2022-11-08T17:07:33.022Z,99946.50
2022-11-08T17:12:35.558Z,99946.35
2022-11-08T17:17:38.179Z,99944.77
2022-11-08T17:22:42.042Z,99942.30
2022-11-08T17:27:44.996Z,99944.71
2022-11-08T17:32:47.544Z,99944.60
2022-11-08T17:37:50.355Z,99938.98
2022-11-08T17:42:52.959Z,99932.39
2022-11-08T17:47:56.036Z,99928.39
2022-11-08T17:52:58.687Z,99930.89
2022-11-08T17:58:01.150Z,99929.27
2022-11-08T18:03:08.825Z,99933.91
2022-11-08T18:08:14.153Z,99933.23
2022-11-08T18:13:17.495Z,99936.10
2022-11-08T18:18:21.054Z,99935.36
2022-11-08T18:23:23.597Z,99935.36
2022-11-08T18:28:29.298Z,99930.64
2022-11-08T18:33:31.940Z,99923.14
2022-11-08T18:38:40.293Z,99932.02
2022-11-08T18:43:43.242Z,99926.45
2022-11-08T18:48:46.131Z,99921.98
2022-11-08T18:53:49.406Z,99918.63
2022-11-08T18:58:52.012Z,99916.25
2022-11-08T19:03:54.535Z,99921.37
2022-11-08T19:08:57.604Z,99919.48
2022-11-08T19:14:01.875Z,99919.80
2022-11-08T19:19:04.350Z,99922.02
2022-11-08T19:24:10.940Z,99919.27
2022-11-08T19:29:14.104Z,99923.38
2022-11-08T19:34:16.636Z,99921.98
2022-11-08T19:39:19.872Z,99924.17
2022-11-08T19:44:22.556Z,99925.83
2022-11-08T19:49:27.886Z,99930.35
2022-11-08T19:54:30.611Z,99930.45
2022-11-08T19:59:33.925Z,99924.84
2022-11-08T20:04:36.503Z,99926.54
2022-11-08T20:09:39.057Z,99920.63
2022-11-08T20:14:41.535Z,99920.45
2022-11-08T20:19:46.400Z,99923.27
2022-11-08T20:24:48.944Z,99915.79
2022-11-08T20:29:51.770Z,99915.52
2022-11-08T20:34:55.253Z,99917.90
2022-11-08T20:39:57.897Z,99916.55
2022-11-08T20:45:00.403Z,99914.61
2022-11-08T20:50:03.129Z,99915.98
2022-11-08T20:55:05.921Z,99914.70
2022-11-08T21:00:13.443Z,99910.92
2022-11-08T21:05:17.874Z,99909.87
2022-11-08T21:10:41.388Z,99910.59
2022-11-08T21:15:45.224Z,99911.25
2022-11-08T21:20:50.600Z,99909.48
2022-11-08T21:25:53.361Z,99903.85
2022-11-08T21:30:55.940Z,99907.59
2022-11-08T21:35:58.635Z,99903.91
2022-11-08T21:41:05.399Z,99901.48
2022-11-08T21:46:12.069Z,99903.64
2022-11-08T21:51:15.594Z,99901.38
2022-11-08T21:56:18.492Z,99900.73
2022-11-08T22:01:25.410Z,99900.67
2022-11-08T22:06:31.381Z,99907.65
2022-11-08T22:11:36.976Z,99906.58
2022-11-08T22:16:39.653Z,99897.59
2022-11-08T22:21:43.257Z,99893.38
2022-11-08T22:26:47.672Z,99887.80
2022-11-08T22:31:50.303Z,99881.12
2022-11-08T22:36:52.947Z,99876.95
2022-11-08T22:41:55.965Z,99871.52
2022-11-08T22:46:58.662Z,99856.84
2022-11-08T22:52:01.234Z,99861.41
2022-11-08T22:57:04.178Z,99855.35
2022-11-08T23:02:06.721Z,99854.61
2022-11-08T23:07:09.368Z,99857.14
2022-11-08T23:12:14.915Z,99851.92
2022-11-08T23:17:17.476Z,99853.60
2022-11-08T23:22:23.389Z,99847.94
2022-11-08T23:27:29.632Z,99846.81
2022-11-08T23:32:33.361Z,99848.08
2022-11-08T23:37:35.902Z,99844.52
2022-11-08T23:42:43.761Z,99841.06
2022-11-08T23:47:46.379Z,99839.20
2022-11-08T23:52:48.921Z,99832.39
2022-11-08T23:57:51.460Z,99835.02
